sensor_id;sensor_type;location;lat;lon;timestamp;P1;durP1;ratioP1;P2;durP2;ratioP2
18949;SDS011;9608;49.288;8.130;2023-03-01T00:01:51;5.67;;;3.40;;
18949;SDS011;9608;49.288;8.130;2023-03-01T00:04:19;3.87;;;3.43;;
18949;SDS011;9608;49.288;8.130;2023-03-01T00:06:46;6.27;;;3.50;;
18949;SDS011;9608;49.288;8.130;2023-03-01T00:09:13;2.77;;;1.57;;
18949;SDS011;9608;49.288;8.130;2023-03-01T00:11:39;6.73;;;3.33;;
18949;SDS011;9608;49.288;8.130;2023-03-01T00:14:06;5.40;;;2.37;;
18949;SDS011;9608;49.288;8.130;2023-03-01T00:16:34;4.80;;;3.90;;
18949;SDS011;9608;49.288;8.130;2023-03-01T00:19:04;3.83;;;1.70;;
18949;SDS011;9608;49.288;8.130;2023-03-01T00:21:33;3.50;;;2.20;;
18949;SDS011;9608;49.288;8.130;2023-03-01T00:24:00;8.17;;;4.17;;
18949;SDS011;9608;49.288;8.130;2023-03-01T00:26:27;9.90;;;3.47;;
18949;SDS011;9608;49.288;8.130;2023-03-01T00:28:54;10.30;;;3.60;;
18949;SDS011;9608;49.288;8.130;2023-03-01T00:31:23;1.53;;;0.97;;
18949;SDS011;9608;49.288;8.130;2023-03-01T00:33:53;3.17;;;1.83;;
18949;SDS011;9608;49.288;8.130;2023-03-01T00:36:22;3.33;;;3.03;;
18949;SDS011;9608;49.288;8.130;2023-03-01T00:38:50;4.70;;;2.50;;
18949;SDS011;9608;49.288;8.130;2023-03-01T00:41:18;6.03;;;2.80;;
18949;SDS011;9608;49.288;8.130;2023-03-01T00:43:47;2.70;;;1.80;;
18949;SDS011;9608;49.288;8.130;2023-03-01T00:46:15;9.03;;;3.67;;
18949;SDS011;9608;49.288;8.130;2023-03-01T00:48:43;6.03;;;2.80;;
18949;SDS011;9608;49.288;8.130;2023-03-01T00:51:11;4.53;;;2.60;;
18949;SDS011;9608;49.288;8.130;2023-03-01T00:53:40;38.20;;;5.20;;
18949;SDS011;9608;49.288;8.130;2023-03-01T00:56:09;2.37;;;1.13;;
18949;SDS011;9608;49.288;8.130;2023-03-01T00:58:37;7.13;;;2.43;;
18949;SDS011;9608;49.288;8.130;2023-03-01T01:01:06;2.80;;;1.27;;
18949;SDS011;9608;49.288;8.130;2023-03-01T01:03:42;5.37;;;3.53;;
18949;SDS011;9608;49.288;8.130;2023-03-01T01:06:12;4.67;;;2.53;;
18949;SDS011;9608;49.288;8.130;2023-03-01T01:08:40;2.90;;;1.60;;
18949;SDS011;9608;49.288;8.130;2023-03-01T01:11:09;7.60;;;4.40;;
18949;SDS011;9608;49.288;8.130;2023-03-01T01:13:36;10.23;;;5.27;;
18949;SDS011;9608;49.288;8.130;2023-03-01T01:16:03;7.53;;;3.50;;
18949;SDS011;9608;49.288;8.130;2023-03-01T01:18:31;5.33;;;3.17;;
18949;SDS011;9608;49.288;8.130;2023-03-01T01:21:02;13.53;;;2.90;;
18949;SDS011;9608;49.288;8.130;2023-03-01T01:23:30;4.87;;;2.50;;
18949;SDS011;9608;49.288;8.130;2023-03-01T01:25:56;11.30;;;3.60;;
18949;SDS011;9608;49.288;8.130;2023-03-01T01:28:24;8.87;;;3.50;;
18949;SDS011;9608;49.288;8.130;2023-03-01T01:30:51;3.27;;;1.30;;
18949;SDS011;9608;49.288;8.130;2023-03-01T01:33:18;9.40;;;3.13;;
18949;SDS011;9608;49.288;8.130;2023-03-01T01:35:45;14.33;;;5.07;;
18949;SDS011;9608;49.288;8.130;2023-03-01T01:38:12;8.37;;;4.33;;
18949;SDS011;9608;49.288;8.130;2023-03-01T01:40:42;5.43;;;2.47;;
18949;SDS011;9608;49.288;8.130;2023-03-01T01:43:12;9.43;;;4.43;;
18949;SDS011;9608;49.288;8.130;2023-03-01T01:45:46;7.67;;;5.20;;
18949;SDS011;9608;49.288;8.130;2023-03-01T01:48:14;5.90;;;2.93;;
18949;SDS011;9608;49.288;8.130;2023-03-01T01:50:45;11.90;;;5.17;;
18949;SDS011;9608;49.288;8.130;2023-03-01T01:53:21;7.20;;;3.10;;
18949;SDS011;9608;49.288;8.130;2023-03-01T01:55:49;6.90;;;3.30;;
18949;SDS011;9608;49.288;8.130;2023-03-01T01:58:19;5.47;;;3.13;;
18949;SDS011;9608;49.288;8.130;2023-03-01T02:00:49;4.10;;;2.80;;
18949;SDS011;9608;49.288;8.130;2023-03-01T02:03:17;10.37;;;3.03;;
18949;SDS011;9608;49.288;8.130;2023-03-01T02:05:50;12.00;;;3.63;;
18949;SDS011;9608;49.288;8.130;2023-03-01T02:08:21;2.57;;;2.37;;
18949;SDS011;9608;49.288;8.130;2023-03-01T02:10:51;5.70;;;3.50;;
18949;SDS011;9608;49.288;8.130;2023-03-01T02:13:19;9.13;;;2.77;;
18949;SDS011;9608;49.288;8.130;2023-03-01T02:15:45;8.13;;;6.10;;
18949;SDS011;9608;49.288;8.130;2023-03-01T02:18:14;3.37;;;1.80;;
18949;SDS011;9608;49.288;8.130;2023-03-01T02:20:44;3.73;;;1.60;;
18949;SDS011;9608;49.288;8.130;2023-03-01T02:23:22;9.60;;;3.37;;
18949;SDS011;9608;49.288;8.130;2023-03-01T02:25:51;9.37;;;6.47;;
18949;SDS011;9608;49.288;8.130;2023-03-01T02:28:26;9.40;;;2.63;;
18949;SDS011;9608;49.288;8.130;2023-03-01T02:30:56;5.83;;;2.97;;
18949;SDS011;9608;49.288;8.130;2023-03-01T02:33:40;4.50;;;3.47;;
18949;SDS011;9608;49.288;8.130;2023-03-01T02:36:08;1.40;;;0.87;;
18949;SDS011;9608;49.288;8.130;2023-03-01T02:38:38;4.93;;;2.80;;
18949;SDS011;9608;49.288;8.130;2023-03-01T02:41:05;5.73;;;2.70;;
18949;SDS011;9608;49.288;8.130;2023-03-01T02:43:37;5.67;;;3.27;;
18949;SDS011;9608;49.288;8.130;2023-03-01T02:46:06;4.37;;;2.37;;
18949;SDS011;9608;49.288;8.130;2023-03-01T02:48:41;5.00;;;2.10;;
18949;SDS011;9608;49.288;8.130;2023-03-01T02:51:11;6.40;;;3.10;;
18949;SDS011;9608;49.288;8.130;2023-03-01T02:53:48;4.97;;;4.10;;
18949;SDS011;9608;49.288;8.130;2023-03-01T02:56:25;10.27;;;2.73;;
18949;SDS011;9608;49.288;8.130;2023-03-01T02:58:53;7.63;;;4.50;;
18949;SDS011;9608;49.288;8.130;2023-03-01T03:01:20;8.43;;;4.23;;
18949;SDS011;9608;49.288;8.130;2023-03-01T03:03:47;7.27;;;2.87;;
18949;SDS011;9608;49.288;8.130;2023-03-01T03:06:13;12.53;;;7.10;;
18949;SDS011;9608;49.288;8.130;2023-03-01T03:08:40;8.63;;;3.13;;
18949;SDS011;9608;49.288;8.130;2023-03-01T03:11:07;1.67;;;0.67;;
18949;SDS011;9608;49.288;8.130;2023-03-01T03:13:33;4.20;;;2.97;;
18949;SDS011;9608;49.288;8.130;2023-03-01T03:16:01;4.03;;;3.10;;
18949;SDS011;9608;49.288;8.130;2023-03-01T03:18:29;12.00;;;5.20;;
18949;SDS011;9608;49.288;8.130;2023-03-01T03:20:56;5.37;;;2.97;;
18949;SDS011;9608;49.288;8.130;2023-03-01T03:23:23;14.90;;;2.40;;
18949;SDS011;9608;49.288;8.130;2023-03-01T03:25:50;13.73;;;4.03;;
18949;SDS011;9608;49.288;8.130;2023-03-01T03:28:17;1.00;;;0.20;;
18949;SDS011;9608;49.288;8.130;2023-03-01T03:30:44;5.70;;;2.20;;
18949;SDS011;9608;49.288;8.130;2023-03-01T03:33:13;3.80;;;2.17;;
18949;SDS011;9608;49.288;8.130;2023-03-01T03:35:40;3.90;;;2.63;;
18949;SDS011;9608;49.288;8.130;2023-03-01T03:38:09;7.20;;;4.30;;
18949;SDS011;9608;49.288;8.130;2023-03-01T03:40:42;8.73;;;3.23;;
18949;SDS011;9608;49.288;8.130;2023-03-01T03:43:11;16.90;;;4.87;;
18949;SDS011;9608;49.288;8.130;2023-03-01T03:45:39;3.97;;;2.00;;
18949;SDS011;9608;49.288;8.130;2023-03-01T03:48:07;6.63;;;3.67;;
18949;SDS011;9608;49.288;8.130;2023-03-01T03:50:36;7.07;;;4.27;;
18949;SDS011;9608;49.288;8.130;2023-03-01T03:53:04;14.47;;;7.80;;
18949;SDS011;9608;49.288;8.130;2023-03-01T03:55:32;10.00;;;4.83;;
18949;SDS011;9608;49.288;8.130;2023-03-01T03:57:59;7.37;;;3.00;;
18949;SDS011;9608;49.288;8.130;2023-03-01T04:00:32;6.13;;;2.43;;
18949;SDS011;9608;49.288;8.130;2023-03-01T04:02:59;3.37;;;2.80;;
18949;SDS011;9608;49.288;8.130;2023-03-01T04:05:26;7.60;;;2.50;;
18949;SDS011;9608;49.288;8.130;2023-03-01T04:07:55;7.60;;;4.23;;
18949;SDS011;9608;49.288;8.130;2023-03-01T04:10:32;5.70;;;4.17;;
18949;SDS011;9608;49.288;8.130;2023-03-01T04:13:01;7.50;;;4.30;;
18949;SDS011;9608;49.288;8.130;2023-03-01T04:15:28;8.83;;;4.57;;
18949;SDS011;9608;49.288;8.130;2023-03-01T04:17:55;6.93;;;3.57;;
18949;SDS011;9608;49.288;8.130;2023-03-01T04:20:24;5.33;;;2.83;;
18949;SDS011;9608;49.288;8.130;2023-03-01T04:22:57;3.73;;;2.73;;
18949;SDS011;9608;49.288;8.130;2023-03-01T04:25:33;7.20;;;3.40;;
18949;SDS011;9608;49.288;8.130;2023-03-01T04:28:00;9.33;;;4.70;;
18949;SDS011;9608;49.288;8.130;2023-03-01T04:30:26;11.27;;;5.13;;
18949;SDS011;9608;49.288;8.130;2023-03-01T04:32:53;7.57;;;4.17;;
18949;SDS011;9608;49.288;8.130;2023-03-01T04:35:20;3.43;;;1.50;;
18949;SDS011;9608;49.288;8.130;2023-03-01T04:37:46;3.00;;;1.43;;
18949;SDS011;9608;49.288;8.130;2023-03-01T04:40:15;11.20;;;5.20;;
18949;SDS011;9608;49.288;8.130;2023-03-01T04:42:46;13.83;;;5.67;;
18949;SDS011;9608;49.288;8.130;2023-03-01T04:45:13;20.57;;;6.30;;
18949;SDS011;9608;49.288;8.130;2023-03-01T04:47:40;5.23;;;2.33;;
18949;SDS011;9608;49.288;8.130;2023-03-01T04:50:08;8.13;;;5.57;;
18949;SDS011;9608;49.288;8.130;2023-03-01T04:52:35;6.30;;;3.40;;
18949;SDS011;9608;49.288;8.130;2023-03-01T04:55:02;6.80;;;4.00;;
18949;SDS011;9608;49.288;8.130;2023-03-01T04:57:31;10.37;;;5.03;;
18949;SDS011;9608;49.288;8.130;2023-03-01T04:59:59;14.27;;;5.57;;
18949;SDS011;9608;49.288;8.130;2023-03-01T05:02:25;9.30;;;5.30;;
18949;SDS011;9608;49.288;8.130;2023-03-01T05:04:52;7.10;;;3.03;;
18949;SDS011;9608;49.288;8.130;2023-03-01T05:07:22;10.03;;;7.07;;
18949;SDS011;9608;49.288;8.130;2023-03-01T05:09:49;14.93;;;4.70;;
18949;SDS011;9608;49.288;8.130;2023-03-01T05:12:16;11.57;;;4.30;;
18949;SDS011;9608;49.288;8.130;2023-03-01T05:14:44;7.40;;;3.57;;
18949;SDS011;9608;49.288;8.130;2023-03-01T05:17:11;11.53;;;5.30;;
18949;SDS011;9608;49.288;8.130;2023-03-01T05:19:38;11.23;;;5.07;;
18949;SDS011;9608;49.288;8.130;2023-03-01T05:22:07;13.40;;;6.90;;
18949;SDS011;9608;49.288;8.130;2023-03-01T05:24:34;8.87;;;4.83;;
18949;SDS011;9608;49.288;8.130;2023-03-01T05:27:02;8.00;;;5.00;;
18949;SDS011;9608;49.288;8.130;2023-03-01T05:29:30;9.63;;;7.10;;
18949;SDS011;9608;49.288;8.130;2023-03-01T05:32:01;5.47;;;3.73;;
18949;SDS011;9608;49.288;8.130;2023-03-01T05:34:29;17.30;;;6.60;;
18949;SDS011;9608;49.288;8.130;2023-03-01T05:36:57;5.57;;;3.90;;
18949;SDS011;9608;49.288;8.130;2023-03-01T05:39:25;8.60;;;4.43;;
18949;SDS011;9608;49.288;8.130;2023-03-01T05:41:53;10.17;;;4.87;;
18949;SDS011;9608;49.288;8.130;2023-03-01T05:44:20;7.20;;;4.40;;
18949;SDS011;9608;49.288;8.130;2023-03-01T05:46:48;9.90;;;6.80;;
18949;SDS011;9608;49.288;8.130;2023-03-01T05:49:16;5.03;;;3.20;;
18949;SDS011;9608;49.288;8.130;2023-03-01T05:51:47;10.40;;;4.53;;
18949;SDS011;9608;49.288;8.130;2023-03-01T05:54:15;13.10;;;5.70;;
18949;SDS011;9608;49.288;8.130;2023-03-01T05:56:42;15.27;;;7.67;;
18949;SDS011;9608;49.288;8.130;2023-03-01T05:59:09;9.00;;;4.77;;
18949;SDS011;9608;49.288;8.130;2023-03-01T06:01:37;15.73;;;7.27;;
18949;SDS011;9608;49.288;8.130;2023-03-01T06:04:04;20.57;;;8.70;;
18949;SDS011;9608;49.288;8.130;2023-03-01T06:06:34;34.13;;;7.90;;
18949;SDS011;9608;49.288;8.130;2023-03-01T06:09:02;11.87;;;6.77;;
18949;SDS011;9608;49.288;8.130;2023-03-01T06:11:29;8.70;;;5.10;;
18949;SDS011;9608;49.288;8.130;2023-03-01T06:13:55;10.90;;;5.70;;
18949;SDS011;9608;49.288;8.130;2023-03-01T06:16:22;14.53;;;5.47;;
18949;SDS011;9608;49.288;8.130;2023-03-01T06:18:49;14.80;;;8.23;;
18949;SDS011;9608;49.288;8.130;2023-03-01T06:21:15;10.73;;;6.60;;
18949;SDS011;9608;49.288;8.130;2023-03-01T06:23:43;10.80;;;6.13;;
18949;SDS011;9608;49.288;8.130;2023-03-01T06:26:10;16.00;;;6.70;;
18949;SDS011;9608;49.288;8.130;2023-03-01T06:28:37;7.77;;;5.10;;
18949;SDS011;9608;49.288;8.130;2023-03-01T06:31:04;14.70;;;7.37;;
18949;SDS011;9608;49.288;8.130;2023-03-01T06:33:33;6.43;;;4.70;;
18949;SDS011;9608;49.288;8.130;2023-03-01T06:36:01;11.40;;;5.50;;
18949;SDS011;9608;49.288;8.130;2023-03-01T06:38:27;7.90;;;5.50;;
18949;SDS011;9608;49.288;8.130;2023-03-01T06:40:55;18.57;;;7.07;;
18949;SDS011;9608;49.288;8.130;2023-03-01T06:43:22;15.40;;;6.70;;
18949;SDS011;9608;49.288;8.130;2023-03-01T06:45:50;15.00;;;6.53;;
18949;SDS011;9608;49.288;8.130;2023-03-01T06:48:16;12.60;;;6.27;;
18949;SDS011;9608;49.288;8.130;2023-03-01T06:50:43;18.10;;;8.87;;
18949;SDS011;9608;49.288;8.130;2023-03-01T06:53:10;20.43;;;7.43;;
18949;SDS011;9608;49.288;8.130;2023-03-01T06:55:37;10.40;;;6.07;;
18949;SDS011;9608;49.288;8.130;2023-03-01T06:58:08;12.43;;;5.97;;
18949;SDS011;9608;49.288;8.130;2023-03-01T07:00:37;12.73;;;5.97;;
18949;SDS011;9608;49.288;8.130;2023-03-01T07:03:05;12.80;;;7.53;;
18949;SDS011;9608;49.288;8.130;2023-03-01T07:05:33;12.97;;;7.30;;
18949;SDS011;9608;49.288;8.130;2023-03-01T07:08:01;8.23;;;4.03;;
18949;SDS011;9608;49.288;8.130;2023-03-01T07:10:29;12.00;;;4.77;;
18949;SDS011;9608;49.288;8.130;2023-03-01T07:12:56;11.03;;;6.77;;
18949;SDS011;9608;49.288;8.130;2023-03-01T07:15:25;13.30;;;6.40;;
18949;SDS011;9608;49.288;8.130;2023-03-01T07:17:53;8.77;;;5.73;;
18949;SDS011;9608;49.288;8.130;2023-03-01T07:21:03;9.17;;;5.00;;
18949;SDS011;9608;49.288;8.130;2023-03-01T07:23:35;11.97;;;6.53;;
18949;SDS011;9608;49.288;8.130;2023-03-01T07:26:03;13.60;;;6.60;;
18949;SDS011;9608;49.288;8.130;2023-03-01T07:28:30;18.03;;;7.80;;
18949;SDS011;9608;49.288;8.130;2023-03-01T07:31:05;7.17;;;5.40;;
18949;SDS011;9608;49.288;8.130;2023-03-01T07:33:35;11.87;;;6.10;;
18949;SDS011;9608;49.288;8.130;2023-03-01T07:36:05;11.93;;;4.77;;
18949;SDS011;9608;49.288;8.130;2023-03-01T07:38:35;18.80;;;8.57;;
18949;SDS011;9608;49.288;8.130;2023-03-01T07:41:04;4.17;;;2.30;;
18949;SDS011;9608;49.288;8.130;2023-03-01T07:43:32;15.23;;;5.53;;
18949;SDS011;9608;49.288;8.130;2023-03-01T07:46:03;16.20;;;8.13;;
18949;SDS011;9608;49.288;8.130;2023-03-01T07:48:33;15.40;;;6.93;;
18949;SDS011;9608;49.288;8.130;2023-03-01T07:51:02;12.20;;;6.90;;
18949;SDS011;9608;49.288;8.130;2023-03-01T07:53:34;8.30;;;5.13;;
18949;SDS011;9608;49.288;8.130;2023-03-01T07:56:03;8.37;;;4.30;;
18949;SDS011;9608;49.288;8.130;2023-03-01T07:58:33;7.87;;;5.57;;
18949;SDS011;9608;49.288;8.130;2023-03-01T08:01:05;13.80;;;6.27;;
18949;SDS011;9608;49.288;8.130;2023-03-01T08:03:34;14.50;;;5.03;;
18949;SDS011;9608;49.288;8.130;2023-03-01T08:06:02;8.67;;;5.30;;
18949;SDS011;9608;49.288;8.130;2023-03-01T08:08:31;21.60;;;8.73;;
18949;SDS011;9608;49.288;8.130;2023-03-01T08:10:59;12.57;;;8.20;;
18949;SDS011;9608;49.288;8.130;2023-03-01T08:13:27;9.90;;;5.43;;
18949;SDS011;9608;49.288;8.130;2023-03-01T08:15:59;15.17;;;6.73;;
18949;SDS011;9608;49.288;8.130;2023-03-01T08:18:34;11.97;;;5.63;;
18949;SDS011;9608;49.288;8.130;2023-03-01T08:21:04;14.20;;;6.93;;
18949;SDS011;9608;49.288;8.130;2023-03-01T08:23:32;13.87;;;6.47;;
18949;SDS011;9608;49.288;8.130;2023-03-01T08:26:03;18.57;;;7.00;;
18949;SDS011;9608;49.288;8.130;2023-03-01T08:28:33;14.40;;;6.77;;
18949;SDS011;9608;49.288;8.130;2023-03-01T08:31:03;19.73;;;5.83;;
18949;SDS011;9608;49.288;8.130;2023-03-01T08:33:41;9.50;;;6.07;;
18949;SDS011;9608;49.288;8.130;2023-03-01T08:36:08;17.00;;;9.13;;
18949;SDS011;9608;49.288;8.130;2023-03-01T08:38:35;10.60;;;5.67;;
18949;SDS011;9608;49.288;8.130;2023-03-01T08:41:03;10.60;;;6.33;;
18949;SDS011;9608;49.288;8.130;2023-03-01T08:43:30;9.00;;;4.93;;
18949;SDS011;9608;49.288;8.130;2023-03-01T08:45:57;11.60;;;6.10;;
18949;SDS011;9608;49.288;8.130;2023-03-01T08:48:24;15.40;;;7.00;;
18949;SDS011;9608;49.288;8.130;2023-03-01T08:50:53;14.40;;;6.80;;
18949;SDS011;9608;49.288;8.130;2023-03-01T08:53:20;11.30;;;5.10;;
18949;SDS011;9608;49.288;8.130;2023-03-01T08:55:47;15.83;;;7.57;;
18949;SDS011;9608;49.288;8.130;2023-03-01T08:58:15;13.52;;;6.13;;
18949;SDS011;9608;49.288;8.130;2023-03-01T09:00:42;22.63;;;9.30;;
18949;SDS011;9608;49.288;8.130;2023-03-01T09:03:10;18.30;;;9.00;;
18949;SDS011;9608;49.288;8.130;2023-03-01T09:05:39;11.77;;;5.87;;
18949;SDS011;9608;49.288;8.130;2023-03-01T09:08:10;25.63;;;7.20;;
18949;SDS011;9608;49.288;8.130;2023-03-01T09:10:38;14.53;;;7.93;;
18949;SDS011;9608;49.288;8.130;2023-03-01T09:13:06;9.07;;;4.43;;
18949;SDS011;9608;49.288;8.130;2023-03-01T09:15:33;11.33;;;6.40;;
18949;SDS011;9608;49.288;8.130;2023-03-01T09:18:02;12.37;;;7.40;;
18949;SDS011;9608;49.288;8.130;2023-03-01T09:20:31;20.17;;;8.40;;
18949;SDS011;9608;49.288;8.130;2023-03-01T09:22:58;17.60;;;7.03;;
18949;SDS011;9608;49.288;8.130;2023-03-01T09:25:28;12.70;;;7.50;;
18949;SDS011;9608;49.288;8.130;2023-03-01T09:27:56;16.17;;;7.20;;
18949;SDS011;9608;49.288;8.130;2023-03-01T09:30:24;12.67;;;7.47;;
18949;SDS011;9608;49.288;8.130;2023-03-01T09:32:51;12.50;;;6.07;;
18949;SDS011;9608;49.288;8.130;2023-03-01T09:35:18;30.63;;;10.00;;
18949;SDS011;9608;49.288;8.130;2023-03-01T09:37:47;13.87;;;8.07;;
18949;SDS011;9608;49.288;8.130;2023-03-01T09:40:17;18.17;;;8.60;;
18949;SDS011;9608;49.288;8.130;2023-03-01T09:42:51;12.83;;;6.33;;
18949;SDS011;9608;49.288;8.130;2023-03-01T09:45:25;13.93;;;8.17;;
18949;SDS011;9608;49.288;8.130;2023-03-01T09:47:56;11.00;;;5.93;;
18949;SDS011;9608;49.288;8.130;2023-03-01T09:50:28;18.77;;;6.43;;
18949;SDS011;9608;49.288;8.130;2023-03-01T09:53:02;11.45;;;7.10;;
18949;SDS011;9608;49.288;8.130;2023-03-01T09:58:39;18.00;;;6.80;;
18949;SDS011;9608;49.288;8.130;2023-03-01T10:04:02;8.30;;;5.07;;
18949;SDS011;9608;49.288;8.130;2023-03-01T10:09:10;19.20;;;9.63;;
18949;SDS011;9608;49.288;8.130;2023-03-01T10:11:41;17.97;;;7.70;;
18949;SDS011;9608;49.288;8.130;2023-03-01T10:14:15;12.33;;;6.83;;
18949;SDS011;9608;49.288;8.130;2023-03-01T10:16:54;9.93;;;7.50;;
18949;SDS011;9608;49.288;8.130;2023-03-01T10:19:30;16.67;;;8.27;;
18949;SDS011;9608;49.288;8.130;2023-03-01T10:22:01;10.73;;;6.07;;
18949;SDS011;9608;49.288;8.130;2023-03-01T10:24:32;15.10;;;8.10;;
18949;SDS011;9608;49.288;8.130;2023-03-01T10:27:03;17.13;;;8.87;;
18949;SDS011;9608;49.288;8.130;2023-03-01T10:29:37;9.53;;;5.57;;
18949;SDS011;9608;49.288;8.130;2023-03-01T10:32:10;11.00;;;5.60;;
18949;SDS011;9608;49.288;8.130;2023-03-01T10:34:37;19.33;;;7.50;;
18949;SDS011;9608;49.288;8.130;2023-03-01T10:37:08;11.20;;;6.73;;
18949;SDS011;9608;49.288;8.130;2023-03-01T10:39:37;10.90;;;6.53;;
18949;SDS011;9608;49.288;8.130;2023-03-01T10:42:23;17.90;;;8.20;;
18949;SDS011;9608;49.288;8.130;2023-03-01T10:44:55;25.30;;;10.50;;
18949;SDS011;9608;49.288;8.130;2023-03-01T10:47:24;12.40;;;6.60;;
18949;SDS011;9608;49.288;8.130;2023-03-01T10:50:03;22.07;;;8.47;;
18949;SDS011;9608;49.288;8.130;2023-03-01T10:52:33;12.33;;;6.20;;
18949;SDS011;9608;49.288;8.130;2023-03-01T10:55:19;9.87;;;5.60;;
18949;SDS011;9608;49.288;8.130;2023-03-01T10:58:05;3.30;;;3.00;;
18949;SDS011;9608;49.288;8.130;2023-03-01T11:00:36;9.20;;;5.57;;
18949;SDS011;9608;49.288;8.130;2023-03-01T11:03:13;13.67;;;7.17;;
18949;SDS011;9608;49.288;8.130;2023-03-01T11:05:50;9.33;;;5.83;;
18949;SDS011;9608;49.288;8.130;2023-03-01T11:08:33;15.60;;;6.17;;
18949;SDS011;9608;49.288;8.130;2023-03-01T11:13:58;8.37;;;5.57;;
18949;SDS011;9608;49.288;8.130;2023-03-01T11:16:30;11.70;;;6.00;;
18949;SDS011;9608;49.288;8.130;2023-03-01T11:19:01;17.00;;;6.40;;
18949;SDS011;9608;49.288;8.130;2023-03-01T11:21:43;20.80;;;7.97;;
18949;SDS011;9608;49.288;8.130;2023-03-01T11:24:27;24.97;;;11.50;;
18949;SDS011;9608;49.288;8.130;2023-03-01T11:27:08;12.40;;;6.17;;
18949;SDS011;9608;49.288;8.130;2023-03-01T11:29:44;8.67;;;5.70;;
18949;SDS011;9608;49.288;8.130;2023-03-01T11:32:17;13.85;;;7.85;;
18949;SDS011;9608;49.288;8.130;2023-03-01T11:34:49;19.37;;;6.43;;
18949;SDS011;9608;49.288;8.130;2023-03-01T11:37:27;12.00;;;5.10;;
18949;SDS011;9608;49.288;8.130;2023-03-01T11:40:03;12.50;;;7.23;;
18949;SDS011;9608;49.288;8.130;2023-03-01T11:42:41;13.93;;;8.50;;
18949;SDS011;9608;49.288;8.130;2023-03-01T11:45:14;16.97;;;10.77;;
18949;SDS011;9608;49.288;8.130;2023-03-01T11:47:46;12.10;;;7.20;;
18949;SDS011;9608;49.288;8.130;2023-03-01T11:50:28;20.57;;;9.97;;
18949;SDS011;9608;49.288;8.130;2023-03-01T11:53:05;16.03;;;9.73;;
18949;SDS011;9608;49.288;8.130;2023-03-01T11:55:52;10.30;;;6.70;;
18949;SDS011;9608;49.288;8.130;2023-03-01T11:58:35;18.27;;;10.20;;
18949;SDS011;9608;49.288;8.130;2023-03-01T12:01:27;16.90;;;8.60;;
18949;SDS011;9608;49.288;8.130;2023-03-01T12:06:57;16.50;;;9.10;;
18949;SDS011;9608;49.288;8.130;2023-03-01T12:09:30;18.13;;;7.70;;
18949;SDS011;9608;49.288;8.130;2023-03-01T12:12:12;15.97;;;8.87;;
18949;SDS011;9608;49.288;8.130;2023-03-01T12:15:11;19.60;;;8.83;;
18949;SDS011;9608;49.288;8.130;2023-03-01T12:18:17;14.20;;;7.57;;
18949;SDS011;9608;49.288;8.130;2023-03-01T12:21:14;9.83;;;5.90;;
18949;SDS011;9608;49.288;8.130;2023-03-01T12:26:52;11.77;;;6.80;;
18949;SDS011;9608;49.288;8.130;2023-03-01T12:29:25;19.33;;;8.20;;
18949;SDS011;9608;49.288;8.130;2023-03-01T12:32:00;14.30;;;7.13;;
18949;SDS011;9608;49.288;8.130;2023-03-01T12:34:43;8.30;;;5.27;;
18949;SDS011;9608;49.288;8.130;2023-03-01T12:37:27;10.30;;;6.10;;
18949;SDS011;9608;49.288;8.130;2023-03-01T12:40:05;10.93;;;5.50;;
18949;SDS011;9608;49.288;8.130;2023-03-01T12:42:47;13.20;;;6.97;;
18949;SDS011;9608;49.288;8.130;2023-03-01T12:45:32;16.97;;;8.40;;
18949;SDS011;9608;49.288;8.130;2023-03-01T12:48:13;6.30;;;4.13;;
18949;SDS011;9608;49.288;8.130;2023-03-01T12:50:52;14.63;;;7.17;;
18949;SDS011;9608;49.288;8.130;2023-03-01T12:53:23;8.10;;;3.10;;
18949;SDS011;9608;49.288;8.130;2023-03-01T12:55:53;11.57;;;6.43;;
18949;SDS011;9608;49.288;8.130;2023-03-01T12:58:23;11.73;;;6.47;;
18949;SDS011;9608;49.288;8.130;2023-03-01T13:00:59;13.50;;;6.63;;
18949;SDS011;9608;49.288;8.130;2023-03-01T13:03:35;14.03;;;7.87;;
18949;SDS011;9608;49.288;8.130;2023-03-01T13:06:17;15.63;;;8.73;;
18949;SDS011;9608;49.288;8.130;2023-03-01T13:08:54;23.63;;;6.97;;
18949;SDS011;9608;49.288;8.130;2023-03-01T13:11:25;12.87;;;6.23;;
18949;SDS011;9608;49.288;8.130;2023-03-01T13:13:52;15.83;;;7.80;;
18949;SDS011;9608;49.288;8.130;2023-03-01T13:16:57;20.97;;;6.13;;
18949;SDS011;9608;49.288;8.130;2023-03-01T13:19:25;12.90;;;9.23;;
18949;SDS011;9608;49.288;8.130;2023-03-01T13:21:54;12.40;;;6.77;;
18949;SDS011;9608;49.288;8.130;2023-03-01T13:24:27;14.43;;;7.87;;
18949;SDS011;9608;49.288;8.130;2023-03-01T13:27:11;13.87;;;7.03;;
18949;SDS011;9608;49.288;8.130;2023-03-01T13:29:50;12.60;;;7.00;;
18949;SDS011;9608;49.288;8.130;2023-03-01T13:32:21;13.60;;;7.50;;
18949;SDS011;9608;49.288;8.130;2023-03-01T13:34:49;15.33;;;7.70;;
18949;SDS011;9608;49.288;8.130;2023-03-01T13:37:28;12.20;;;6.40;;
18949;SDS011;9608;49.288;8.130;2023-03-01T13:39:59;8.30;;;5.13;;
18949;SDS011;9608;49.288;8.130;2023-03-01T13:45:18;12.73;;;6.67;;
18949;SDS011;9608;49.288;8.130;2023-03-01T13:47:48;14.03;;;7.30;;
18949;SDS011;9608;49.288;8.130;2023-03-01T13:50:20;12.03;;;6.03;;
18949;SDS011;9608;49.288;8.130;2023-03-01T13:52:50;9.27;;;5.43;;
18949;SDS011;9608;49.288;8.130;2023-03-01T13:55:22;15.33;;;6.23;;
18949;SDS011;9608;49.288;8.130;2023-03-01T13:57:53;19.53;;;5.37;;
18949;SDS011;9608;49.288;8.130;2023-03-01T14:00:33;9.07;;;4.20;;
18949;SDS011;9608;49.288;8.130;2023-03-01T14:03:01;16.10;;;6.90;;
18949;SDS011;9608;49.288;8.130;2023-03-01T14:05:30;17.83;;;7.00;;
18949;SDS011;9608;49.288;8.130;2023-03-01T14:07:57;12.23;;;4.90;;
18949;SDS011;9608;49.288;8.130;2023-03-01T14:10:27;24.93;;;6.83;;
18949;SDS011;9608;49.288;8.130;2023-03-01T14:13:02;14.37;;;6.10;;
18949;SDS011;9608;49.288;8.130;2023-03-01T14:15:44;11.83;;;7.30;;
18949;SDS011;9608;49.288;8.130;2023-03-01T14:18:23;11.50;;;5.90;;
18949;SDS011;9608;49.288;8.130;2023-03-01T14:20:55;15.83;;;7.13;;
18949;SDS011;9608;49.288;8.130;2023-03-01T14:23:22;15.93;;;7.50;;
18949;SDS011;9608;49.288;8.130;2023-03-01T14:25:53;11.40;;;6.30;;
18949;SDS011;9608;49.288;8.130;2023-03-01T14:28:22;18.97;;;8.87;;
18949;SDS011;9608;49.288;8.130;2023-03-01T14:30:52;8.70;;;5.40;;
18949;SDS011;9608;49.288;8.130;2023-03-01T14:33:21;6.63;;;3.80;;
18949;SDS011;9608;49.288;8.130;2023-03-01T14:35:56;15.70;;;8.37;;
18949;SDS011;9608;49.288;8.130;2023-03-01T14:38:29;12.53;;;5.40;;
18949;SDS011;9608;49.288;8.130;2023-03-01T14:41:00;6.50;;;3.43;;
18949;SDS011;9608;49.288;8.130;2023-03-01T14:43:29;12.90;;;8.10;;
18949;SDS011;9608;49.288;8.130;2023-03-01T14:45:57;8.53;;;4.47;;
18949;SDS011;9608;49.288;8.130;2023-03-01T14:48:24;6.67;;;4.10;;
18949;SDS011;9608;49.288;8.130;2023-03-01T14:50:52;16.03;;;5.40;;
18949;SDS011;9608;49.288;8.130;2023-03-01T14:53:20;6.10;;;4.37;;
18949;SDS011;9608;49.288;8.130;2023-03-01T14:55:50;8.37;;;4.57;;
18949;SDS011;9608;49.288;8.130;2023-03-01T14:58:21;9.67;;;5.07;;
18949;SDS011;9608;49.288;8.130;2023-03-01T15:00:50;8.20;;;4.70;;
18949;SDS011;9608;49.288;8.130;2023-03-01T15:03:24;7.83;;;3.20;;
18949;SDS011;9608;49.288;8.130;2023-03-01T15:05:53;11.23;;;6.20;;
18949;SDS011;9608;49.288;8.130;2023-03-01T15:08:21;9.50;;;5.20;;
18949;SDS011;9608;49.288;8.130;2023-03-01T15:10:57;8.57;;;4.67;;
18949;SDS011;9608;49.288;8.130;2023-03-01T15:13:30;8.40;;;4.20;;
18949;SDS011;9608;49.288;8.130;2023-03-01T15:16:02;9.97;;;5.87;;
18949;SDS011;9608;49.288;8.130;2023-03-01T15:18:32;8.30;;;5.40;;
18949;SDS011;9608;49.288;8.130;2023-03-01T15:21:07;8.33;;;4.87;;
18949;SDS011;9608;49.288;8.130;2023-03-01T15:23:35;5.73;;;3.17;;
18949;SDS011;9608;49.288;8.130;2023-03-01T15:26:04;10.40;;;5.77;;
18949;SDS011;9608;49.288;8.130;2023-03-01T15:28:33;12.00;;;6.30;;
18949;SDS011;9608;49.288;8.130;2023-03-01T15:31:04;10.07;;;3.83;;
18949;SDS011;9608;49.288;8.130;2023-03-01T15:33:42;7.80;;;5.10;;
18949;SDS011;9608;49.288;8.130;2023-03-01T15:36:31;10.13;;;5.63;;